RYR7FE EBBR-EIDW
Flight info
| Callsign | RYR7FE |
|---|---|
| Flight time | 1h 20m |
| Altitude | 32000 |
| Route | DENUT L610 KOPUL DCT SABER DCT SIVDA DCT RODOL UL28 LELDO M145 BAGSO BAGSO4L |
| Aircraft | B38M/M-SDE1FGHILORVWXY/HB1 |
Departure
| Time | 2026-05-07 10:44 |
|---|---|
| Airport | Brussels Airport (EBBR) |
Arrival
| Time | 2026-05-07 12:05 |
|---|---|
| Airport | Dublin Airport (EIDW) |
| Time | Latitude | Longitude | Altitude | Speed | Heading |
|---|---|---|---|---|---|
| 2026-05-07 10:12 | 50.89633 | 4.48962 | 195 ft | 0 kts | 335° |
| 2026-05-07 10:35 | 50.89620 | 4.48971 | 195 ft | 4 kts | 340° |
| 2026-05-07 10:35 | 50.89594 | 4.48981 | 195 ft | 4 kts | 355° |
| 2026-05-07 10:35 | 50.89568 | 4.48978 | 195 ft | 4 kts | 22° |
| 2026-05-07 10:36 | 50.89550 | 4.48955 | 195 ft | 2 kts | 64° |
| 2026-05-07 10:36 | 50.89548 | 4.48946 | 195 ft | 0 kts | 65° |
| 2026-05-07 10:38 | 50.89550 | 4.48955 | 195 ft | 3 kts | 65° |
| 2026-05-07 10:39 | 50.89565 | 4.49005 | 195 ft | 7 kts | 65° |
| 2026-05-07 10:39 | 50.89593 | 4.49071 | 195 ft | 7 kts | 38° |
| 2026-05-07 10:39 | 50.89616 | 4.49142 | 195 ft | 9 kts | 99° |
| 2026-05-07 10:39 | 50.89564 | 4.49183 | 195 ft | 12 kts | 191° |
| 2026-05-07 10:40 | 50.89471 | 4.49148 | 195 ft | 15 kts | 194° |
| 2026-05-07 10:40 | 50.89370 | 4.49108 | 195 ft | 15 kts | 194° |
| 2026-05-07 10:40 | 50.89265 | 4.49066 | 195 ft | 16 kts | 194° |
| 2026-05-07 10:40 | 50.89156 | 4.49022 | 195 ft | 16 kts | 194° |
| 2026-05-07 10:41 | 50.89043 | 4.48976 | 195 ft | 17 kts | 194° |
| 2026-05-07 10:41 | 50.88926 | 4.48929 | 195 ft | 18 kts | 194° |
| 2026-05-07 10:41 | 50.88808 | 4.48883 | 195 ft | 15 kts | 191° |
| 2026-05-07 10:41 | 50.88747 | 4.48938 | 195 ft | 10 kts | 108° |
| 2026-05-07 10:42 | 50.88730 | 4.49030 | 195 ft | 8 kts | 104° |
| 2026-05-07 10:42 | 50.88718 | 4.49106 | 195 ft | 6 kts | 104° |
| 2026-05-07 10:42 | 50.88714 | 4.49146 | 195 ft | 1 kts | 60° |
| 2026-05-07 10:42 | 50.88716 | 4.49150 | 195 ft | 1 kts | 39° |
| 2026-05-07 10:43 | 50.88721 | 4.49153 | 195 ft | 0 kts | 16° |
| 2026-05-07 10:44 | 50.88815 | 4.49195 | 195 ft | 46 kts | 15° |
| 2026-05-07 10:44 | 50.89407 | 4.49435 | 196 ft | 128 kts | 14° |
| 2026-05-07 10:44 | 50.90491 | 4.49871 | 408 ft | 183 kts | 15° |
| 2026-05-07 10:44 | 50.91781 | 4.50293 | 1368 ft | 200 kts | 7° |
| 2026-05-07 10:45 | 50.93251 | 4.49816 | 2134 ft | 233 kts | 341° |
| 2026-05-07 10:45 | 50.94680 | 4.48344 | 2945 ft | 254 kts | 324° |
| 2026-05-07 10:45 | 50.95961 | 4.46448 | 4234 ft | 252 kts | 315° |
| 2026-05-07 10:45 | 50.96752 | 4.43895 | 5173 ft | 268 kts | 282° |
| 2026-05-07 10:46 | 50.96843 | 4.40958 | 6365 ft | 269 kts | 276° |
| 2026-05-07 10:46 | 50.97284 | 4.38045 | 7339 ft | 274 kts | 291° |
| 2026-05-07 10:46 | 50.98168 | 4.35358 | 8378 ft | 276 kts | 302° |
| 2026-05-07 10:46 | 50.99160 | 4.32761 | 9351 ft | 281 kts | 303° |
| 2026-05-07 10:47 | 51.00169 | 4.30086 | 10363 ft | 284 kts | 303° |
| 2026-05-07 10:47 | 51.01197 | 4.27334 | 11105 ft | 298 kts | 303° |
| 2026-05-07 10:47 | 51.02276 | 4.24421 | 11708 ft | 314 kts | 303° |
| 2026-05-07 10:47 | 51.03405 | 4.21357 | 12404 ft | 325 kts | 302° |
| 2026-05-07 10:48 | 51.04553 | 4.18234 | 13291 ft | 329 kts | 303° |
| 2026-05-07 10:48 | 51.05711 | 4.15075 | 14156 ft | 333 kts | 302° |
| 2026-05-07 10:48 | 51.06880 | 4.11883 | 14988 ft | 336 kts | 302° |
| 2026-05-07 10:48 | 51.08060 | 4.08660 | 15784 ft | 339 kts | 302° |
| 2026-05-07 10:49 | 51.09249 | 4.05405 | 16556 ft | 342 kts | 303° |
| 2026-05-07 10:49 | 51.10449 | 4.02115 | 17302 ft | 345 kts | 302° |
| 2026-05-07 10:49 | 51.11660 | 3.98794 | 18018 ft | 348 kts | 302° |
| 2026-05-07 10:49 | 51.12879 | 3.95443 | 18704 ft | 351 kts | 302° |
| 2026-05-07 10:50 | 51.14108 | 3.92060 | 19362 ft | 355 kts | 302° |
| 2026-05-07 10:50 | 51.15349 | 3.88643 | 20004 ft | 358 kts | 302° |
| 2026-05-07 10:50 | 51.16597 | 3.85200 | 20633 ft | 360 kts | 302° |
| 2026-05-07 10:50 | 51.17852 | 3.81731 | 21235 ft | 363 kts | 302° |
| 2026-05-07 10:51 | 51.19120 | 3.78224 | 21822 ft | 366 kts | 302° |
| 2026-05-07 10:51 | 51.20395 | 3.74692 | 22397 ft | 369 kts | 302° |
| 2026-05-07 10:51 | 51.21680 | 3.71128 | 22956 ft | 372 kts | 302° |
| 2026-05-07 10:51 | 51.22965 | 3.67524 | 23505 ft | 375 kts | 300° |
| 2026-05-07 10:52 | 51.23820 | 3.63560 | 24034 ft | 380 kts | 286° |
| 2026-05-07 10:52 | 51.24419 | 3.59429 | 24544 ft | 384 kts | 285° |
| 2026-05-07 10:52 | 51.24999 | 3.55251 | 25030 ft | 387 kts | 284° |
| 2026-05-07 10:52 | 51.25567 | 3.51047 | 25526 ft | 389 kts | 284° |
| 2026-05-07 10:53 | 51.26131 | 3.46814 | 25992 ft | 391 kts | 284° |
| 2026-05-07 10:53 | 51.26697 | 3.42544 | 26460 ft | 394 kts | 284° |
| 2026-05-07 10:53 | 51.27253 | 3.38254 | 26906 ft | 396 kts | 284° |
| 2026-05-07 10:53 | 51.27812 | 3.33929 | 27336 ft | 398 kts | 284° |
| 2026-05-07 10:54 | 51.28372 | 3.29578 | 27769 ft | 401 kts | 284° |
| 2026-05-07 10:54 | 51.28926 | 3.25269 | 28174 ft | 403 kts | 284° |
| 2026-05-07 10:54 | 51.29488 | 3.20874 | 28580 ft | 405 kts | 284° |
| 2026-05-07 10:54 | 51.30052 | 3.16453 | 28980 ft | 407 kts | 284° |
| 2026-05-07 10:55 | 51.30617 | 3.12013 | 29370 ft | 409 kts | 284° |
| 2026-05-07 10:55 | 51.31184 | 3.07541 | 29746 ft | 411 kts | 284° |
| 2026-05-07 10:55 | 51.31751 | 3.03055 | 30128 ft | 413 kts | 284° |
| 2026-05-07 10:55 | 51.32318 | 2.98547 | 30488 ft | 415 kts | 284° |
| 2026-05-07 10:56 | 51.32887 | 2.94012 | 30854 ft | 417 kts | 283° |
| 2026-05-07 10:56 | 51.33457 | 2.89459 | 31204 ft | 419 kts | 283° |
| 2026-05-07 10:56 | 51.34029 | 2.84875 | 31537 ft | 421 kts | 283° |
| 2026-05-07 10:56 | 51.34600 | 2.80281 | 31897 ft | 422 kts | 283° |
| 2026-05-07 10:57 | 51.35171 | 2.75678 | 32299 ft | 423 kts | 283° |
| 2026-05-07 10:57 | 51.35741 | 2.71074 | 32332 ft | 421 kts | 283° |
| 2026-05-07 10:57 | 51.36871 | 2.61913 | 32338 ft | 419 kts | 283° |
| 2026-05-07 10:58 | 51.37992 | 2.52757 | 32339 ft | 419 kts | 283° |
| 2026-05-07 10:58 | 51.39104 | 2.43615 | 32340 ft | 418 kts | 283° |
| 2026-05-07 10:59 | 51.40208 | 2.34476 | 32341 ft | 418 kts | 282° |
| 2026-05-07 10:59 | 51.41304 | 2.25401 | 32343 ft | 417 kts | 283° |
| 2026-05-07 11:00 | 51.42418 | 2.16290 | 32346 ft | 417 kts | 283° |
| 2026-05-07 11:00 | 51.43523 | 2.07179 | 32346 ft | 417 kts | 282° |
| 2026-05-07 11:01 | 51.44623 | 1.98004 | 32347 ft | 416 kts | 282° |
| 2026-05-07 11:01 | 51.45693 | 1.88951 | 32349 ft | 416 kts | 282° |
| 2026-05-07 11:02 | 51.46753 | 1.79839 | 32350 ft | 416 kts | 282° |
| 2026-05-07 11:02 | 51.47808 | 1.70700 | 32352 ft | 417 kts | 282° |
| 2026-05-07 11:03 | 51.48858 | 1.61544 | 32354 ft | 417 kts | 282° |
| 2026-05-07 11:03 | 51.49900 | 1.52380 | 32355 ft | 418 kts | 282° |
| 2026-05-07 11:04 | 51.50938 | 1.43193 | 32356 ft | 419 kts | 282° |
| 2026-05-07 11:04 | 51.51966 | 1.34029 | 32357 ft | 420 kts | 282° |
| 2026-05-07 11:05 | 51.52992 | 1.24807 | 32358 ft | 420 kts | 282° |
| 2026-05-07 11:05 | 51.54604 | 1.15868 | 32359 ft | 417 kts | 300° |
| 2026-05-07 11:06 | 51.56351 | 1.12174 | 32363 ft | 416 kts | 315° |
| 2026-05-07 11:06 | 51.58533 | 1.09125 | 32364 ft | 415 kts | 321° |
| 2026-05-07 11:06 | 51.63126 | 1.03486 | 32361 ft | 416 kts | 323° |
| 2026-05-07 11:07 | 51.67792 | 0.97981 | 32363 ft | 416 kts | 324° |
| 2026-05-07 11:07 | 51.72301 | 0.92137 | 32366 ft | 416 kts | 319° |
| 2026-05-07 11:08 | 51.76675 | 0.86020 | 32364 ft | 416 kts | 320° |
| 2026-05-07 11:08 | 51.81038 | 0.79965 | 32364 ft | 416 kts | 320° |
| 2026-05-07 11:09 | 51.85430 | 0.73862 | 32358 ft | 416 kts | 320° |
| 2026-05-07 11:09 | 51.89816 | 0.67752 | 32358 ft | 416 kts | 320° |
| 2026-05-07 11:10 | 51.94200 | 0.61628 | 32358 ft | 416 kts | 320° |
| 2026-05-07 11:10 | 51.98578 | 0.55496 | 32359 ft | 416 kts | 320° |
| 2026-05-07 11:11 | 52.02953 | 0.49352 | 32362 ft | 416 kts | 320° |
| 2026-05-07 11:11 | 52.07320 | 0.43202 | 32360 ft | 416 kts | 320° |
| 2026-05-07 11:12 | 52.11687 | 0.37037 | 32360 ft | 415 kts | 320° |
| 2026-05-07 11:12 | 52.16048 | 0.30862 | 32360 ft | 416 kts | 320° |
| 2026-05-07 11:13 | 52.20407 | 0.24675 | 32360 ft | 415 kts | 320° |
| 2026-05-07 11:13 | 52.24728 | 0.18524 | 32360 ft | 415 kts | 320° |
| 2026-05-07 11:14 | 52.29074 | 0.12322 | 32359 ft | 415 kts | 320° |
| 2026-05-07 11:14 | 52.33428 | 0.06094 | 32360 ft | 416 kts | 320° |
| 2026-05-07 11:15 | 52.37402 | -0.00776 | 32359 ft | 417 kts | 310° |
| 2026-05-07 11:15 | 52.41008 | -0.08225 | 32363 ft | 423 kts | 312° |
| 2026-05-07 11:16 | 52.44085 | -0.14624 | 32364 ft | 434 kts | 312° |
| 2026-05-07 11:16 | 52.47813 | -0.22395 | 32364 ft | 434 kts | 312° |
| 2026-05-07 11:17 | 52.51540 | -0.30187 | 32366 ft | 434 kts | 312° |
| 2026-05-07 11:17 | 52.55260 | -0.37988 | 32368 ft | 434 kts | 311° |
| 2026-05-07 11:18 | 52.58979 | -0.45811 | 32370 ft | 434 kts | 311° |
| 2026-05-07 11:18 | 52.62695 | -0.53649 | 32371 ft | 434 kts | 311° |
| 2026-05-07 11:19 | 52.66404 | -0.61499 | 32373 ft | 435 kts | 311° |
| 2026-05-07 11:19 | 52.70112 | -0.69372 | 32374 ft | 435 kts | 311° |
| 2026-05-07 11:20 | 52.73817 | -0.77262 | 32374 ft | 434 kts | 311° |
| 2026-05-07 11:20 | 52.77509 | -0.85149 | 32375 ft | 435 kts | 311° |
| 2026-05-07 11:21 | 52.81204 | -0.93067 | 32375 ft | 435 kts | 311° |
| 2026-05-07 11:21 | 52.84894 | -1.01000 | 32374 ft | 435 kts | 311° |
| 2026-05-07 11:22 | 52.88579 | -1.08944 | 32374 ft | 435 kts | 311° |
| 2026-05-07 11:22 | 52.92261 | -1.16910 | 32374 ft | 436 kts | 311° |
| 2026-05-07 11:23 | 52.95944 | -1.24901 | 32373 ft | 436 kts | 311° |
| 2026-05-07 11:23 | 52.99622 | -1.32908 | 32375 ft | 437 kts | 311° |
| 2026-05-07 11:24 | 53.03276 | -1.40887 | 32374 ft | 437 kts | 311° |
| 2026-05-07 11:24 | 53.06956 | -1.48948 | 32374 ft | 438 kts | 311° |
| 2026-05-07 11:25 | 53.10631 | -1.57026 | 32374 ft | 438 kts | 311° |
| 2026-05-07 11:25 | 53.14311 | -1.65138 | 32374 ft | 439 kts | 312° |
| 2026-05-07 11:26 | 53.17989 | -1.73270 | 32373 ft | 440 kts | 312° |
| 2026-05-07 11:26 | 53.21672 | -1.81434 | 32377 ft | 441 kts | 312° |
| 2026-05-07 11:27 | 53.24973 | -1.90116 | 32378 ft | 448 kts | 302° |
| 2026-05-07 11:27 | 53.27764 | -1.99439 | 32377 ft | 450 kts | 302° |
| 2026-05-07 11:28 | 53.30552 | -2.08813 | 32377 ft | 451 kts | 302° |
| 2026-05-07 11:28 | 53.33338 | -2.18216 | 32377 ft | 451 kts | 301° |
| 2026-05-07 11:29 | 53.35951 | -2.27703 | 32384 ft | 455 kts | 294° |
| 2026-05-07 11:29 | 53.37916 | -2.37809 | 32353 ft | 457 kts | 292° |
| 2026-05-07 11:30 | 53.39849 | -2.47970 | 32355 ft | 458 kts | 292° |
| 2026-05-07 11:30 | 53.41772 | -2.58139 | 32355 ft | 458 kts | 292° |
| 2026-05-07 11:31 | 53.43685 | -2.68310 | 32355 ft | 457 kts | 292° |
| 2026-05-07 11:31 | 53.45591 | -2.78499 | 32356 ft | 458 kts | 292° |
| 2026-05-07 11:32 | 53.48432 | -2.93792 | 32356 ft | 459 kts | 292° |
| 2026-05-07 11:33 | 53.50322 | -3.04033 | 32356 ft | 459 kts | 291° |
| 2026-05-07 11:33 | 53.52207 | -3.14305 | 32356 ft | 460 kts | 291° |
| 2026-05-07 11:34 | 53.54087 | -3.24608 | 32357 ft | 462 kts | 291° |
| 2026-05-07 11:34 | 53.55963 | -3.34947 | 32356 ft | 460 kts | 291° |
| 2026-05-07 11:34 | 53.56876 | -3.40005 | 32305 ft | 445 kts | 291° |
| 2026-05-07 11:35 | 53.57763 | -3.44924 | 32050 ft | 436 kts | 291° |
| 2026-05-07 11:35 | 53.58637 | -3.49783 | 31575 ft | 433 kts | 291° |
| 2026-05-07 11:35 | 53.59493 | -3.54564 | 31098 ft | 431 kts | 291° |
| 2026-05-07 11:35 | 53.60353 | -3.59371 | 30641 ft | 428 kts | 291° |
| 2026-05-07 11:36 | 53.61206 | -3.64158 | 30186 ft | 425 kts | 291° |
| 2026-05-07 11:36 | 53.62231 | -3.68774 | 29688 ft | 419 kts | 297° |
| 2026-05-07 11:36 | 53.63333 | -3.73293 | 29228 ft | 416 kts | 297° |
| 2026-05-07 11:36 | 53.64410 | -3.77798 | 28780 ft | 413 kts | 296° |
| 2026-05-07 11:37 | 53.65467 | -3.82280 | 28324 ft | 410 kts | 296° |
| 2026-05-07 11:37 | 53.66510 | -3.86733 | 27864 ft | 407 kts | 296° |
| 2026-05-07 11:37 | 53.67545 | -3.91165 | 27403 ft | 404 kts | 296° |
| 2026-05-07 11:37 | 53.68578 | -3.95557 | 26931 ft | 401 kts | 296° |
| 2026-05-07 11:38 | 53.69616 | -3.99921 | 26442 ft | 399 kts | 296° |
| 2026-05-07 11:38 | 53.70643 | -4.04254 | 25993 ft | 396 kts | 296° |
| 2026-05-07 11:38 | 53.71517 | -4.08660 | 25464 ft | 400 kts | 285° |
| 2026-05-07 11:38 | 53.71811 | -4.13331 | 25028 ft | 399 kts | 278° |
| 2026-05-07 11:39 | 53.72007 | -4.17973 | 24582 ft | 395 kts | 277° |
| 2026-05-07 11:39 | 53.72190 | -4.22588 | 24121 ft | 392 kts | 277° |
| 2026-05-07 11:39 | 53.72364 | -4.27170 | 23658 ft | 390 kts | 276° |
| 2026-05-07 11:39 | 53.72534 | -4.31719 | 23195 ft | 387 kts | 276° |
| 2026-05-07 11:40 | 53.72700 | -4.36229 | 22734 ft | 384 kts | 276° |
| 2026-05-07 11:40 | 53.72863 | -4.40708 | 22274 ft | 380 kts | 276° |
| 2026-05-07 11:40 | 53.73024 | -4.45155 | 21801 ft | 378 kts | 276° |
| 2026-05-07 11:40 | 53.73182 | -4.49567 | 21315 ft | 375 kts | 276° |
| 2026-05-07 11:41 | 53.73336 | -4.53947 | 20880 ft | 372 kts | 276° |
| 2026-05-07 11:41 | 53.73487 | -4.58283 | 20440 ft | 368 kts | 276° |
| 2026-05-07 11:41 | 53.73636 | -4.62575 | 19990 ft | 365 kts | 276° |
| 2026-05-07 11:41 | 53.73781 | -4.66831 | 19536 ft | 359 kts | 275° |
| 2026-05-07 11:42 | 53.73922 | -4.70990 | 19088 ft | 350 kts | 275° |
| 2026-05-07 11:42 | 53.74058 | -4.75047 | 18641 ft | 342 kts | 275° |
| 2026-05-07 11:42 | 53.74190 | -4.79005 | 18195 ft | 334 kts | 275° |
| 2026-05-07 11:42 | 53.74318 | -4.82876 | 17752 ft | 326 kts | 275° |
| 2026-05-07 11:43 | 53.74199 | -4.86660 | 17286 ft | 322 kts | 260° |
| 2026-05-07 11:43 | 53.73376 | -4.90142 | 16847 ft | 319 kts | 243° |
| 2026-05-07 11:43 | 53.72059 | -4.93114 | 16406 ft | 315 kts | 231° |
| 2026-05-07 11:43 | 53.70616 | -4.95848 | 15952 ft | 309 kts | 230° |
| 2026-05-07 11:44 | 53.69187 | -4.98522 | 15500 ft | 304 kts | 230° |
| 2026-05-07 11:44 | 53.67779 | -5.01145 | 15049 ft | 299 kts | 230° |
| 2026-05-07 11:44 | 53.66391 | -5.03723 | 14599 ft | 294 kts | 230° |
| 2026-05-07 11:44 | 53.65025 | -5.06256 | 14150 ft | 290 kts | 230° |
| 2026-05-07 11:45 | 53.63679 | -5.08749 | 13702 ft | 286 kts | 230° |
| 2026-05-07 11:45 | 53.62350 | -5.11206 | 13256 ft | 282 kts | 230° |
| 2026-05-07 11:45 | 53.61082 | -5.13627 | 12801 ft | 277 kts | 234° |
| 2026-05-07 11:45 | 53.60153 | -5.16474 | 12349 ft | 271 kts | 246° |
| 2026-05-07 11:46 | 53.59397 | -5.19350 | 11922 ft | 267 kts | 248° |
| 2026-05-07 11:46 | 53.58677 | -5.22151 | 11535 ft | 262 kts | 248° |
| 2026-05-07 11:46 | 53.57988 | -5.24949 | 11164 ft | 256 kts | 249° |
| 2026-05-07 11:46 | 53.57330 | -5.27695 | 10800 ft | 251 kts | 249° |
| 2026-05-07 11:47 | 53.56687 | -5.30392 | 10448 ft | 245 kts | 249° |
| 2026-05-07 11:47 | 53.56064 | -5.33032 | 10098 ft | 241 kts | 249° |
| 2026-05-07 11:47 | 53.55457 | -5.35631 | 9753 ft | 237 kts | 249° |
| 2026-05-07 11:47 | 53.54862 | -5.38196 | 9403 ft | 234 kts | 249° |
| 2026-05-07 11:48 | 53.54283 | -5.40722 | 9052 ft | 230 kts | 249° |
| 2026-05-07 11:48 | 53.53718 | -5.43217 | 8702 ft | 226 kts | 249° |
| 2026-05-07 11:48 | 53.53162 | -5.45675 | 8354 ft | 223 kts | 249° |
| 2026-05-07 11:48 | 53.52614 | -5.48096 | 8005 ft | 221 kts | 249° |
| 2026-05-07 11:49 | 53.52075 | -5.50494 | 7661 ft | 218 kts | 249° |
| 2026-05-07 11:49 | 53.51545 | -5.52843 | 7572 ft | 218 kts | 249° |
| 2026-05-07 11:49 | 53.50987 | -5.55316 | 7608 ft | 235 kts | 249° |
| 2026-05-07 11:49 | 53.50386 | -5.57972 | 7654 ft | 252 kts | 249° |
| 2026-05-07 11:50 | 53.49583 | -5.60691 | 7657 ft | 267 kts | 238° |
| 2026-05-07 11:50 | 53.48517 | -5.63276 | 7700 ft | 272 kts | 234° |
| 2026-05-07 11:50 | 53.47431 | -5.65889 | 7701 ft | 273 kts | 235° |
| 2026-05-07 11:50 | 53.46343 | -5.68504 | 7701 ft | 273 kts | 235° |
| 2026-05-07 11:51 | 53.45255 | -5.71119 | 7701 ft | 273 kts | 235° |
| 2026-05-07 11:51 | 53.44168 | -5.73730 | 7701 ft | 273 kts | 235° |
| 2026-05-07 11:51 | 53.43079 | -5.76345 | 7701 ft | 273 kts | 235° |
| 2026-05-07 11:51 | 53.41992 | -5.78956 | 7702 ft | 273 kts | 235° |
| 2026-05-07 11:52 | 53.40919 | -5.81530 | 7702 ft | 273 kts | 235° |
| 2026-05-07 11:52 | 53.39830 | -5.84142 | 7702 ft | 273 kts | 234° |
| 2026-05-07 11:52 | 53.38741 | -5.86752 | 7702 ft | 273 kts | 235° |
| 2026-05-07 11:52 | 53.37649 | -5.89364 | 7703 ft | 274 kts | 234° |
| 2026-05-07 11:53 | 53.36610 | -5.92030 | 7669 ft | 275 kts | 242° |
| 2026-05-07 11:53 | 53.36032 | -5.95012 | 7663 ft | 261 kts | 255° |
| 2026-05-07 11:53 | 53.35612 | -5.97892 | 7562 ft | 249 kts | 256° |
| 2026-05-07 11:53 | 53.35203 | -6.00678 | 7312 ft | 244 kts | 256° |
| 2026-05-07 11:54 | 53.34810 | -6.03410 | 7056 ft | 239 kts | 256° |
| 2026-05-07 11:54 | 53.34425 | -6.06092 | 6799 ft | 235 kts | 256° |
| 2026-05-07 11:54 | 53.34047 | -6.08721 | 6545 ft | 230 kts | 256° |
| 2026-05-07 11:54 | 53.33675 | -6.11316 | 6291 ft | 229 kts | 256° |
| 2026-05-07 11:55 | 53.33305 | -6.13904 | 6041 ft | 229 kts | 256° |
| 2026-05-07 11:55 | 53.32940 | -6.16488 | 5790 ft | 228 kts | 256° |
| 2026-05-07 11:55 | 53.32573 | -6.19064 | 5538 ft | 228 kts | 256° |
| 2026-05-07 11:55 | 53.32211 | -6.21635 | 5356 ft | 226 kts | 256° |
| 2026-05-07 11:56 | 53.32019 | -6.24258 | 5077 ft | 229 kts | 269° |
| 2026-05-07 11:56 | 53.32176 | -6.26889 | 4869 ft | 227 kts | 276° |
| 2026-05-07 11:56 | 53.32349 | -6.29519 | 4612 ft | 227 kts | 276° |
| 2026-05-07 11:56 | 53.32561 | -6.32135 | 4339 ft | 227 kts | 281° |
| 2026-05-07 11:57 | 53.33054 | -6.34644 | 4085 ft | 226 kts | 290° |
| 2026-05-07 11:57 | 53.33611 | -6.37105 | 3834 ft | 227 kts | 291° |
| 2026-05-07 11:57 | 53.34207 | -6.39545 | 3576 ft | 226 kts | 293° |
| 2026-05-07 11:57 | 53.34805 | -6.41972 | 3319 ft | 226 kts | 292° |
| 2026-05-07 11:58 | 53.35398 | -6.44405 | 3060 ft | 225 kts | 292° |
| 2026-05-07 11:58 | 53.35984 | -6.46822 | 3010 ft | 225 kts | 292° |
| 2026-05-07 11:58 | 53.36566 | -6.49222 | 3000 ft | 226 kts | 292° |
| 2026-05-07 11:58 | 53.37164 | -6.51685 | 2998 ft | 224 kts | 292° |
| 2026-05-07 11:59 | 53.37792 | -6.53965 | 2966 ft | 209 kts | 300° |
| 2026-05-07 11:59 | 53.38656 | -6.55804 | 2984 ft | 196 kts | 312° |
| 2026-05-07 11:59 | 53.39679 | -6.57271 | 2953 ft | 194 kts | 330° |
| 2026-05-07 11:59 | 53.40953 | -6.57589 | 2998 ft | 188 kts | 6° |
| 2026-05-07 12:00 | 53.42066 | -6.56583 | 2998 ft | 182 kts | 43° |
| 2026-05-07 12:00 | 53.42674 | -6.54765 | 3034 ft | 179 kts | 67° |
| 2026-05-07 12:00 | 53.43060 | -6.52822 | 2955 ft | 170 kts | 75° |
| 2026-05-07 12:00 | 53.43256 | -6.50972 | 2774 ft | 153 kts | 83° |
| 2026-05-07 12:01 | 53.43287 | -6.49277 | 2593 ft | 141 kts | 90° |
| 2026-05-07 12:01 | 53.43245 | -6.47637 | 2433 ft | 138 kts | 93° |
| 2026-05-07 12:01 | 53.43173 | -6.46042 | 2276 ft | 139 kts | 94° |
| 2026-05-07 12:01 | 53.43089 | -6.44443 | 2074 ft | 137 kts | 95° |
| 2026-05-07 12:02 | 53.43004 | -6.42861 | 1890 ft | 136 kts | 95° |
| 2026-05-07 12:02 | 53.42918 | -6.41283 | 1710 ft | 136 kts | 95° |
| 2026-05-07 12:02 | 53.42831 | -6.39700 | 1523 ft | 137 kts | 94° |
| 2026-05-07 12:02 | 53.42744 | -6.38114 | 1349 ft | 137 kts | 94° |
| 2026-05-07 12:03 | 53.42656 | -6.36526 | 1164 ft | 136 kts | 94° |
| 2026-05-07 12:03 | 53.42570 | -6.34947 | 982 ft | 136 kts | 94° |
| 2026-05-07 12:03 | 53.42483 | -6.33372 | 804 ft | 135 kts | 94° |
| 2026-05-07 12:03 | 53.42392 | -6.31781 | 615 ft | 139 kts | 94° |
| 2026-05-07 12:04 | 53.42308 | -6.30160 | 466 ft | 140 kts | 93° |
| 2026-05-07 12:04 | 53.42247 | -6.29087 | 328 ft | 138 kts | 93° |
| 2026-05-07 12:04 | 53.42161 | -6.27584 | 255 ft | 117 kts | 88° |
| 2026-05-07 12:04 | 53.42117 | -6.26665 | 254 ft | 52 kts | 95° |
| 2026-05-07 12:05 | 53.42115 | -6.26285 | 253 ft | 23 kts | 66° |
| 2026-05-07 12:05 | 53.42186 | -6.26103 | 253 ft | 15 kts | 47° |
| 2026-05-07 12:05 | 53.42252 | -6.25989 | 253 ft | 12 kts | 45° |
| 2026-05-07 12:05 | 53.42302 | -6.25907 | 253 ft | 8 kts | 46° |
| 2026-05-07 12:06 | 53.42334 | -6.25851 | 253 ft | 7 kts | 46° |
| 2026-05-07 12:06 | 53.42373 | -6.25783 | 253 ft | 10 kts | 45° |
| 2026-05-07 12:06 | 53.42428 | -6.25689 | 253 ft | 13 kts | 46° |
| 2026-05-07 12:06 | 53.42497 | -6.25569 | 253 ft | 15 kts | 46° |
| 2026-05-07 12:07 | 53.42576 | -6.25435 | 253 ft | 17 kts | 46° |
| 2026-05-07 12:07 | 53.42660 | -6.25290 | 253 ft | 18 kts | 46° |
| 2026-05-07 12:07 | 53.42732 | -6.25206 | 253 ft | 9 kts | 350° |
| 2026-05-07 12:07 | 53.42791 | -6.25242 | 253 ft | 10 kts | 334° |
| 2026-05-07 12:08 | 53.42865 | -6.25295 | 253 ft | 10 kts | 356° |
| 2026-05-07 12:08 | 53.42902 | -6.25242 | 253 ft | 7 kts | 54° |
| 2026-05-07 12:08 | 53.42921 | -6.25232 | 253 ft | 5 kts | 355° |
| 2026-05-07 12:08 | 53.42958 | -6.25200 | 253 ft | 6 kts | 67° |
| 2026-05-07 12:09 | 53.42955 | -6.25100 | 253 ft | 11 kts | 96° |
| 2026-05-07 12:09 | 53.42948 | -6.24982 | 253 ft | 8 kts | 95° |
| 2026-05-07 12:09 | 53.42952 | -6.24965 | 253 ft | 1 kts | 43° |
| 2026-05-07 12:09 | 53.42963 | -6.24955 | 253 ft | 3 kts | 21° |
| 2026-05-07 12:10 | 53.42982 | -6.24948 | 253 ft | 2 kts | 7° |
| 2026-05-07 12:10 | 53.42995 | -6.24946 | 253 ft | 1 kts | 7° |
| 2026-05-07 12:10 | 53.43005 | -6.24944 | 253 ft | 1 kts | 6° |
| 2026-05-07 12:10 | 53.43008 | -6.24943 | 253 ft | 0 kts | 6° |